createdAt,value
2022-08-17T00:00:42.926Z,4.80
2022-08-17T00:04:50.338Z,4.43
2022-08-17T00:08:55.015Z,4.95
2022-08-17T00:12:56.794Z,5.03
2022-08-17T00:16:58.947Z,4.40
2022-08-17T00:21:01.741Z,4.90
2022-08-17T00:25:09.010Z,4.38
2022-08-17T00:29:10.689Z,4.10
2022-08-17T00:33:25.964Z,4.32
2022-08-17T00:37:27.833Z,4.35
2022-08-17T00:41:29.786Z,4.20
2022-08-17T00:45:32.638Z,4.45
2022-08-17T00:49:34.246Z,4.05
2022-08-17T00:53:42.193Z,4.20
2022-08-17T00:57:46.987Z,4.53
2022-08-17T01:01:50.386Z,4.85
2022-08-17T01:05:55.983Z,4.45
2022-08-17T01:10:00.197Z,4.90
2022-08-17T01:14:01.916Z,4.78
2022-08-17T01:18:07.895Z,4.35
2022-08-17T01:22:11.017Z,4.43
2022-08-17T01:26:12.626Z,4.57
2022-08-17T01:30:57.376Z,4.50
2022-08-17T01:34:42.440Z,4.38
2022-08-17T01:38:45.182Z,4.43
2022-08-17T01:43:00.967Z,3.77
2022-08-17T01:47:02.854Z,4.47
2022-08-17T01:51:07.619Z,4.63
2022-08-17T01:55:10.220Z,4.40
2022-08-17T01:59:13.006Z,4.32
2022-08-17T02:03:17.262Z,4.07
2022-08-17T02:07:19.321Z,3.93
2022-08-17T02:11:28.477Z,4.43
2022-08-17T02:15:32.041Z,4.30
2022-08-17T02:19:33.619Z,4.38
2022-08-17T02:23:40.513Z,4.10
2022-08-17T02:27:42.660Z,4.30
2022-08-17T02:31:44.347Z,4.57
2022-08-17T02:35:46.012Z,4.18
2022-08-17T02:39:47.873Z,4.32
2022-08-17T02:43:49.494Z,4.13
2022-08-17T02:47:52.160Z,4.43
2022-08-17T02:55:55.266Z,4.00
2022-08-17T02:59:56.835Z,4.40
2022-08-17T03:03:59.000Z,4.40
2022-08-17T03:08:00.723Z,4.25
2022-08-17T03:12:12.508Z,4.15
2022-08-17T03:16:14.124Z,4.32
2022-08-17T03:20:16.304Z,4.70
2022-08-17T03:24:18.094Z,4.80
2022-08-17T03:28:20.225Z,4.68
2022-08-17T03:32:22.239Z,5.00
2022-08-17T03:36:23.860Z,5.87
2022-08-17T03:40:36.954Z,5.35
2022-08-17T03:44:51.509Z,5.32
2022-08-17T03:49:11.784Z,5.50
2022-08-17T03:53:36.530Z,5.75
2022-08-17T03:57:40.867Z,5.10
2022-08-17T04:01:46.975Z,5.55
2022-08-17T04:05:48.559Z,5.35
2022-08-17T04:09:50.356Z,5.82
2022-08-17T04:13:52.035Z,5.15
2022-08-17T04:17:53.696Z,5.35
2022-08-17T04:21:55.304Z,5.05
2022-08-17T04:25:57.377Z,5.40
2022-08-17T04:29:59.004Z,5.40
2022-08-17T04:34:00.593Z,5.40
2022-08-17T04:38:02.214Z,5.15
2022-08-17T04:42:17.253Z,4.78
2022-08-17T04:46:21.378Z,4.50
2022-08-17T04:50:22.979Z,4.43
2022-08-17T04:54:25.497Z,5.00
2022-08-17T04:58:27.341Z,5.00
2022-08-17T05:02:28.939Z,5.15
2022-08-17T05:06:30.554Z,4.88
2022-08-17T05:10:35.679Z,4.90
2022-08-17T05:14:39.613Z,7.80
2022-08-17T05:18:41.387Z,8.05
2022-08-17T05:22:51.574Z,7.70
2022-08-17T05:26:53.254Z,7.88
2022-08-17T05:30:59.483Z,9.10
2022-08-17T05:35:01.052Z,8.20
2022-08-17T05:39:02.798Z,9.25
2022-08-17T05:43:12.995Z,7.97
2022-08-17T05:47:14.620Z,8.60
2022-08-17T05:51:27.467Z,8.73
2022-08-17T06:00:03.309Z,7.70
2022-08-17T06:04:30.482Z,7.80
2022-08-17T06:08:51.795Z,7.32
2022-08-17T06:13:28.051Z,8.25
2022-08-17T06:17:31.182Z,8.15
2022-08-17T06:21:42.597Z,7.82
2022-08-17T06:25:52.240Z,8.05
2022-08-17T06:30:22.315Z,8.30
2022-08-17T06:34:24.039Z,7.60
2022-08-17T06:38:38.501Z,8.25
2022-08-17T06:43:14.606Z,8.35
2022-08-17T06:47:41.838Z,8.07
2022-08-17T06:51:53.661Z,7.45
2022-08-17T06:56:01.693Z,7.63
2022-08-17T07:00:07.964Z,7.13
2022-08-17T07:04:16.956Z,7.20
2022-08-17T07:08:51.237Z,6.95
2022-08-17T07:12:59.019Z,7.43
2022-08-17T07:17:07.056Z,7.15
2022-08-17T07:21:19.192Z,6.78
2022-08-17T07:25:23.463Z,7.40
2022-08-17T07:29:25.205Z,7.07
2022-08-17T07:33:29.714Z,6.68
2022-08-17T07:37:33.731Z,7.68
2022-08-17T07:41:53.151Z,7.00
2022-08-17T07:46:40.827Z,6.53
2022-08-17T07:50:42.446Z,6.95
2022-08-17T07:54:51.121Z,6.55
2022-08-17T07:59:10.418Z,6.32
2022-08-17T08:03:27.162Z,7.28
2022-08-17T08:07:35.990Z,7.60
2022-08-17T08:11:41.271Z,7.65
2022-08-17T08:15:53.750Z,7.60
2022-08-17T08:19:58.879Z,8.05
2022-08-17T08:24:30.855Z,8.48
2022-08-17T08:28:47.871Z,8.07
2022-08-17T08:32:54.951Z,9.15
2022-08-17T08:37:32.741Z,10.10
2022-08-17T08:42:00.123Z,8.55
2022-08-17T08:46:33.288Z,10.90
2022-08-17T08:50:48.543Z,9.30
2022-08-17T08:55:28.821Z,9.95
2022-08-17T08:59:45.156Z,9.55
2022-08-17T09:04:24.742Z,10.38
2022-08-17T09:08:45.603Z,9.82
2022-08-17T09:13:10.135Z,9.73
2022-08-17T09:17:44.897Z,10.02
2022-08-17T09:21:54.493Z,8.55
2022-08-17T09:26:07.175Z,10.75
2022-08-17T09:34:17.272Z,8.52
2022-08-17T09:38:35.246Z,10.13
2022-08-17T09:42:49.167Z,8.68
2022-08-17T09:46:56.023Z,8.73
2022-08-17T09:51:20.101Z,8.88
2022-08-17T09:55:28.140Z,9.50
2022-08-17T09:59:41.903Z,9.90
2022-08-17T10:04:05.603Z,9.10
2022-08-17T10:08:24.087Z,9.68
2022-08-17T10:13:05.877Z,10.02
2022-08-17T10:17:26.332Z,9.80
2022-08-17T10:21:47.865Z,10.93
2022-08-17T10:26:04.789Z,8.93
2022-08-17T10:30:09.940Z,9.27
2022-08-17T10:34:28.691Z,8.98
2022-08-17T10:38:37.139Z,8.63
2022-08-17T10:43:10.265Z,10.10
2022-08-17T10:47:15.728Z,9.38
2022-08-17T10:51:37.962Z,9.20
2022-08-17T10:55:41.588Z,9.02
2022-08-17T10:59:43.106Z,9.88
2022-08-17T11:03:56.935Z,9.77
2022-08-17T11:08:05.378Z,9.52
2022-08-17T11:12:26.654Z,9.40
2022-08-17T11:16:53.324Z,9.13
2022-08-17T11:21:20.325Z,8.93
2022-08-17T11:25:33.105Z,8.77
2022-08-17T11:29:52.951Z,9.38
2022-08-17T11:34:04.535Z,8.48
2022-08-17T11:38:47.286Z,8.18
2022-08-17T11:43:21.273Z,7.15
2022-08-17T11:48:25.876Z,6.60
2022-08-17T11:52:47.485Z,6.10
2022-08-17T11:56:50.817Z,5.63
2022-08-17T12:01:29.377Z,5.68
2022-08-17T12:05:33.357Z,4.97
2022-08-17T12:09:40.259Z,5.15
2022-08-17T12:13:50.104Z,5.25
2022-08-17T12:17:54.042Z,5.30
2022-08-17T12:21:57.793Z,5.40
2022-08-17T12:26:07.818Z,5.18
2022-08-17T12:30:12.526Z,5.32
2022-08-17T12:34:26.721Z,5.13
2022-08-17T12:38:33.180Z,6.07
2022-08-17T12:42:39.443Z,5.68
2022-08-17T12:47:01.781Z,5.70
2022-08-17T12:51:07.895Z,5.50
2022-08-17T12:55:21.223Z,5.28
2022-08-17T12:59:29.895Z,5.47
2022-08-17T13:03:39.627Z,5.43
2022-08-17T13:07:42.648Z,7.38
2022-08-17T13:11:56.415Z,5.07
2022-08-17T13:16:01.193Z,5.53
2022-08-17T13:20:13.380Z,5.28
2022-08-17T13:24:37.913Z,4.72
2022-08-17T13:28:47.394Z,5.18
2022-08-17T13:32:48.989Z,5.43
2022-08-17T13:37:13.981Z,5.40
2022-08-17T13:41:36.281Z,5.05
2022-08-17T13:45:43.527Z,5.50
2022-08-17T13:49:48.814Z,5.45
2022-08-17T13:53:58.362Z,6.15
2022-08-17T13:58:06.634Z,5.53
2022-08-17T14:02:11.306Z,5.55
2022-08-17T14:06:12.938Z,6.28
2022-08-17T14:10:36.487Z,5.47
2022-08-17T14:14:39.618Z,5.45
2022-08-17T14:18:56.548Z,5.95
2022-08-17T14:22:59.044Z,5.85
2022-08-17T14:27:03.391Z,5.38
2022-08-17T14:31:07.549Z,5.03
2022-08-17T14:35:11.252Z,5.20
2022-08-17T14:39:14.239Z,5.03
2022-08-17T14:43:15.951Z,5.55
2022-08-17T14:51:21.330Z,4.90
2022-08-17T14:55:22.961Z,5.60
2022-08-17T15:03:28.607Z,4.43
2022-08-17T15:07:30.966Z,4.85
2022-08-17T15:11:32.915Z,5.18
2022-08-17T15:15:34.628Z,4.30
2022-08-17T15:19:36.212Z,4.13
2022-08-17T15:23:39.807Z,4.30
2022-08-17T15:27:42.364Z,4.57
2022-08-17T15:31:43.992Z,3.78
2022-08-17T15:35:45.795Z,4.57
2022-08-17T15:39:47.461Z,4.43
2022-08-17T15:43:52.287Z,4.63
2022-08-17T15:47:54.314Z,5.07
2022-08-17T15:55:57.415Z,4.53
2022-08-17T15:59:59.313Z,4.50
2022-08-17T16:04:07.183Z,4.75
2022-08-17T16:08:23.888Z,4.50
2022-08-17T16:12:26.376Z,5.40
2022-08-17T16:16:29.055Z,5.10
2022-08-17T16:20:31.113Z,5.07
2022-08-17T16:28:36.434Z,5.22
2022-08-17T16:32:38.503Z,5.03
2022-08-17T16:36:40.288Z,5.43
2022-08-17T16:40:42.595Z,4.82
2022-08-17T16:44:44.164Z,5.30
2022-08-17T16:48:46.507Z,4.53
2022-08-17T16:52:49.095Z,5.20
2022-08-17T16:56:51.013Z,4.72
2022-08-17T17:00:52.652Z,4.97
2022-08-17T17:05:03.166Z,4.65
2022-08-17T17:09:12.524Z,5.50
2022-08-17T17:13:25.244Z,5.30
2022-08-17T17:17:32.855Z,5.22
2022-08-17T17:22:07.771Z,5.00
2022-08-17T17:26:21.154Z,5.40
2022-08-17T17:30:48.334Z,5.13
2022-08-17T17:34:56.658Z,5.20
2022-08-17T17:39:17.412Z,5.15
2022-08-17T17:43:39.016Z,5.53
2022-08-17T17:47:42.284Z,5.53
2022-08-17T17:52:10.156Z,4.97
2022-08-17T17:56:43.994Z,5.10
2022-08-17T18:01:09.310Z,5.45
2022-08-17T18:05:15.434Z,5.63
2022-08-17T18:09:39.062Z,5.07
2022-08-17T18:14:07.639Z,5.32
2022-08-17T18:18:38.077Z,5.25
2022-08-17T18:22:39.835Z,5.25
2022-08-17T18:26:43.805Z,4.87
2022-08-17T18:31:19.256Z,5.35
2022-08-17T18:35:22.303Z,5.65
2022-08-17T18:39:28.621Z,5.20
2022-08-17T18:43:44.147Z,5.57
2022-08-17T18:47:56.264Z,5.32
2022-08-17T18:52:23.180Z,6.70
2022-08-17T18:56:30.650Z,5.93
2022-08-17T19:00:38.328Z,5.63
2022-08-17T19:05:09.331Z,5.40
2022-08-17T19:09:33.843Z,5.10
2022-08-17T19:13:42.058Z,5.00
2022-08-17T19:18:00.235Z,6.18
2022-08-17T19:22:28.962Z,6.13
2022-08-17T19:26:54.075Z,5.55
2022-08-17T19:30:59.587Z,5.43
2022-08-17T19:35:02.181Z,5.15
2022-08-17T19:39:12.486Z,5.47
2022-08-17T19:43:21.503Z,4.68
2022-08-17T19:47:54.689Z,5.10
2022-08-17T19:52:39.417Z,4.95
2022-08-17T19:56:47.952Z,5.00
2022-08-17T20:00:52.122Z,4.80
2022-08-17T20:04:59.178Z,5.07
2022-08-17T20:09:15.384Z,5.50
2022-08-17T20:13:33.006Z,5.32
2022-08-17T20:17:40.325Z,5.28
2022-08-17T20:21:49.534Z,4.95
2022-08-17T20:26:08.111Z,4.60
2022-08-17T20:30:13.219Z,4.95
2022-08-17T20:34:46.486Z,5.00
2022-08-17T20:38:56.792Z,5.03
2022-08-17T20:42:59.728Z,5.07
2022-08-17T20:47:07.224Z,4.68
2022-08-17T20:51:27.171Z,4.85
2022-08-17T20:55:51.534Z,4.80
2022-08-17T20:59:55.300Z,4.90
2022-08-17T21:08:13.150Z,4.93
2022-08-17T21:12:39.371Z,5.03
2022-08-17T21:17:15.431Z,5.28
2022-08-17T21:21:19.850Z,4.85
2022-08-17T21:25:25.437Z,5.05
2022-08-17T21:29:33.767Z,5.68
2022-08-17T21:33:39.620Z,6.03
2022-08-17T21:37:50.542Z,6.03
2022-08-17T21:41:56.788Z,6.10
2022-08-17T21:46:08.981Z,6.20
2022-08-17T21:50:18.709Z,6.43
2022-08-17T21:54:38.738Z,5.88
2022-08-17T21:58:45.439Z,6.47
2022-08-17T22:03:01.057Z,6.13
2022-08-17T22:07:09.321Z,5.93
2022-08-17T22:11:10.909Z,5.40
2022-08-17T22:15:17.739Z,5.90
2022-08-17T22:19:21.128Z,6.05
2022-08-17T22:23:51.315Z,5.90
2022-08-17T22:28:00.317Z,5.93
2022-08-17T22:32:01.887Z,5.43
2022-08-17T22:36:28.915Z,6.15
2022-08-17T22:40:33.682Z,5.47
2022-08-17T22:44:44.868Z,5.57
2022-08-17T22:48:50.301Z,5.10
2022-08-17T22:53:22.864Z,5.50
2022-08-17T22:57:43.600Z,5.45
2022-08-17T23:02:13.700Z,5.10
2022-08-17T23:06:15.293Z,5.20
2022-08-17T23:10:16.860Z,5.68
2022-08-17T23:14:21.461Z,5.20
2022-08-17T23:18:23.540Z,5.53
2022-08-17T23:22:25.217Z,5.35
2022-08-17T23:26:27.837Z,6.03
2022-08-17T23:30:32.494Z,5.40
2022-08-17T23:34:34.169Z,5.28
2022-08-17T23:38:36.260Z,5.32
2022-08-17T23:42:43.389Z,6.13
2022-08-17T23:46:48.043Z,5.22
2022-08-17T23:50:52.908Z,5.47
2022-08-17T23:54:54.532Z,5.45
2022-08-17T23:58:56.148Z,6.00
